Time;durP1;ratioP1;P1;durP2;ratioP2;P2;SDS_P1;SDS_P2;PMS_P1;PMS_P2;Temp;Humidity;BMP_temperature;BMP_pressure;BME280_temperature;BME280_humidity;BME280_pressure;Samples;Min_cycle;Max_cycle;Signal;HPM_P1;HPM_P2
2023/05/06 00:02:13;;;;;;;6.75;5.72;;;18.30;99.90;;;;;;5052721;28;20246;-76
2023/05/06 00:04:40;;;;;;;6.97;5.88;;;18.20;99.90;;;;;;5053078;28;20238;-76
2023/05/06 00:07:07;;;;;;;6.53;5.95;;;18.20;99.90;;;;;;5052621;28;20264;-72
2023/05/06 00:09:34;;;;;;;5.82;5.20;;;18.00;99.90;;;;;;5052725;28;20210;-75
2023/05/06 00:12:01;;;;;;;9.55;6.25;;;18.10;99.90;;;;;;5052462;28;20702;-74
2023/05/06 00:14:28;;;;;;;6.22;5.47;;;18.10;99.90;;;;;;5052506;28;20239;-76
2023/05/06 00:16:56;;;;;;;6.82;5.20;;;18.00;99.90;;;;;;5052462;28;20234;-78
2023/05/06 00:19:23;;;;;;;7.32;5.97;;;17.80;99.90;;;;;;5052113;28;20277;-73
2023/05/06 00:21:50;;;;;;;6.30;5.70;;;17.70;99.90;;;;;;5052269;28;20253;-74
2023/05/06 00:24:17;;;;;;;5.82;5.13;;;17.80;99.90;;;;;;5052708;28;20238;-78
2023/05/06 00:26:43;;;;;;;5.97;5.38;;;17.90;99.90;;;;;;5052000;28;20242;-73
2023/05/06 00:29:10;;;;;;;7.53;5.55;;;17.90;99.90;;;;;;5052610;28;20299;-72
2023/05/06 00:31:37;;;;;;;6.18;5.63;;;17.90;99.90;;;;;;5052758;28;20235;-76
2023/05/06 00:34:05;;;;;;;5.00;4.53;;;17.80;99.90;;;;;;5051792;28;20245;-73
2023/05/06 00:36:33;;;;;;;7.60;5.72;;;17.70;99.90;;;;;;5052360;28;20234;-78
2023/05/06 00:38:59;;;;;;;5.90;4.93;;;17.60;99.90;;;;;;5051797;28;20239;-79
2023/05/06 00:41:31;;;;;;;9.00;6.47;;;17.60;99.90;;;;;;5052111;28;20237;-81
2023/05/06 00:43:58;;;;;;;5.20;4.78;;;17.60;99.90;;;;;;5051632;28;20210;-79
2023/05/06 00:46:25;;;;;;;8.02;4.50;;;17.60;99.90;;;;;;5052227;28;20249;-79
2023/05/06 00:48:52;;;;;;;5.07;4.57;;;17.70;99.90;;;;;;5051505;28;20242;-79
2023/05/06 00:51:21;;;;;;;6.32;4.75;;;17.50;99.90;;;;;;5051941;28;20709;-71
2023/05/06 00:53:48;;;;;;;5.97;5.47;;;17.50;99.90;;;;;;5051472;28;20710;-79
2023/05/06 00:56:16;;;;;;;6.88;4.63;;;17.60;99.90;;;;;;5051583;28;20670;-74
2023/05/06 00:58:44;;;;;;;5.28;4.78;;;17.70;99.90;;;;;;5051560;28;20246;-78
2023/05/06 01:01:11;;;;;;;5.13;4.63;;;17.60;99.90;;;;;;5051451;28;20242;-72
2023/05/06 01:03:38;;;;;;;10.77;5.35;;;17.60;99.90;;;;;;5051757;28;20655;-79
2023/05/06 01:06:12;;;;;;;5.75;5.00;;;17.60;99.90;;;;;;5051397;28;20293;-77
2023/05/06 01:08:46;;;;;;;5.82;5.28;;;17.60;99.90;;;;;;5051613;28;20706;-72
2023/05/06 01:11:23;;;;;;;5.70;5.25;;;17.60;99.90;;;;;;5051255;28;20244;-70
2023/05/06 01:13:55;;;;;;;5.32;4.47;;;17.60;99.90;;;;;;5051146;28;20206;-71
2023/05/06 01:16:25;;;;;;;6.07;4.70;;;17.50;99.90;;;;;;5051286;28;20231;-73
2023/05/06 01:18:54;;;;;;;7.60;5.45;;;17.40;99.90;;;;;;5050920;28;20234;-73
2023/05/06 01:21:23;;;;;;;5.75;4.78;;;17.50;99.90;;;;;;5051323;28;20199;-73
2023/05/06 01:23:56;;;;;;;5.07;4.20;;;17.50;99.90;;;;;;5051098;28;20585;-70
2023/05/06 01:26:24;;;;;;;5.32;4.85;;;17.50;99.90;;;;;;5051275;28;20213;-73
2023/05/06 01:28:51;;;;;;;5.80;5.18;;;17.50;99.90;;;;;;5050883;28;20241;-70
2023/05/06 01:31:25;;;;;;;5.90;5.30;;;17.40;99.90;;;;;;5050976;28;20245;-74
2023/05/06 01:34:05;;;;;;;9.05;5.60;;;17.40;99.90;;;;;;5050788;28;20194;-72
2023/05/06 01:36:40;;;;;;;6.65;5.40;;;17.40;99.90;;;;;;5051062;28;20206;-76
2023/05/06 01:39:16;;;;;;;8.07;5.13;;;17.30;99.90;;;;;;5050927;28;20222;-76
2023/05/06 01:41:44;;;;;;;6.05;5.10;;;17.40;99.90;;;;;;5050727;28;20212;-73
2023/05/06 01:44:12;;;;;;;5.82;4.70;;;17.30;99.90;;;;;;5050935;28;20573;-76
2023/05/06 01:46:39;;;;;;;5.13;4.63;;;17.30;99.90;;;;;;5051102;28;20246;-77
2023/05/06 01:49:10;;;;;;;6.45;5.47;;;17.20;99.90;;;;;;5050865;28;20206;-81
2023/05/06 01:51:37;;;;;;;7.03;5.45;;;17.30;99.90;;;;;;5051272;28;20299;-77
2023/05/06 01:54:05;;;;;;;6.55;5.90;;;17.20;99.90;;;;;;5050576;28;20230;-74
2023/05/06 01:56:33;;;;;;;5.78;4.88;;;17.20;99.90;;;;;;5050567;28;20269;-74
2023/05/06 01:59:00;;;;;;;5.20;4.70;;;17.10;99.90;;;;;;5050375;28;20668;-79
2023/05/06 02:01:27;;;;;;;7.88;6.57;;;17.10;99.90;;;;;;5050683;28;20253;-78
2023/05/06 02:03:54;;;;;;;5.75;5.18;;;17.10;99.90;;;;;;5050301;28;20230;-78
2023/05/06 02:06:21;;;;;;;6.45;5.85;;;16.70;99.90;;;;;;5050935;28;20198;-79
2023/05/06 02:08:48;;;;;;;5.32;4.93;;;16.80;99.90;;;;;;5050130;28;20238;-79
2023/05/06 02:11:15;;;;;;;9.43;5.78;;;16.90;99.90;;;;;;5050635;28;20684;-74
2023/05/06 02:13:43;;;;;;;8.77;5.10;;;17.00;99.90;;;;;;5050415;28;20213;-74
2023/05/06 02:16:10;;;;;;;6.32;4.85;;;17.00;99.90;;;;;;5054533;28;20241;-77
2023/05/06 02:18:37;;;;;;;5.38;4.90;;;16.90;99.90;;;;;;5055269;28;20238;-77
2023/05/06 02:21:04;;;;;;;12.60;5.50;;;16.90;99.90;;;;;;5054305;28;20249;-80
2023/05/06 02:23:31;;;;;;;6.80;6.10;;;17.00;99.90;;;;;;5054691;28;20245;-76
2023/05/06 02:25:58;;;;;;;6.07;5.10;;;16.90;99.90;;;;;;5054466;28;20242;-78
2023/05/06 02:28:25;;;;;;;8.25;5.75;;;17.00;99.90;;;;;;5054561;28;20221;-73
2023/05/06 02:30:56;;;;;;;7.25;6.55;;;17.00;99.90;;;;;;5054404;28;20207;-78
2023/05/06 02:33:23;;;;;;;12.18;5.22;;;16.90;99.90;;;;;;5054538;28;20233;-77
2023/05/06 02:35:50;;;;;;;8.15;5.38;;;16.90;99.90;;;;;;5053997;28;20249;-77
2023/05/06 02:38:18;;;;;;;6.25;5.38;;;16.90;99.90;;;;;;5054374;28;20203;-79
2023/05/06 02:40:44;;;;;;;8.55;5.80;;;16.80;99.90;;;;;;5053828;28;20273;-80
2023/05/06 02:43:11;;;;;;;6.72;6.13;;;16.80;99.90;;;;;;5054290;28;20207;-78
2023/05/06 02:45:38;;;;;;;5.13;4.70;;;16.80;99.90;;;;;;5054707;28;20237;-78
2023/05/06 02:48:07;;;;;;;4.70;4.30;;;16.80;99.90;;;;;;5053918;28;20705;-79
2023/05/06 02:50:35;;;;;;;6.07;5.47;;;16.80;99.90;;;;;;5054170;28;20235;-74
2023/05/06 02:53:02;;;;;;;6.50;5.93;;;16.80;99.90;;;;;;5053844;28;20257;-79
2023/05/06 02:55:28;;;;;;;5.78;5.28;;;16.80;99.90;;;;;;5054329;28;20241;-78
2023/05/06 02:57:55;;;;;;;8.93;6.20;;;16.80;99.90;;;;;;5053459;28;20239;-75
2023/05/06 03:00:22;;;;;;;6.50;5.88;;;16.70;99.90;;;;;;5054024;28;20289;-80
2023/05/06 03:02:49;;;;;;;5.47;4.97;;;16.80;99.90;;;;;;5053579;28;20272;-76
2023/05/06 03:05:18;;;;;;;6.53;5.78;;;16.70;99.90;;;;;;5053881;28;20238;-79
2023/05/06 03:07:45;;;;;;;6.85;6.25;;;16.60;99.90;;;;;;5053767;28;20238;-78
2023/05/06 03:10:11;;;;;;;6.43;5.88;;;16.50;99.90;;;;;;5053830;28;20217;-76
2023/05/06 03:12:38;;;;;;;9.80;6.50;;;16.50;99.90;;;;;;5054041;28;20230;-78
2023/05/06 03:15:06;;;;;;;6.10;5.60;;;16.50;99.90;;;;;;5053351;28;20238;-77
2023/05/06 03:17:33;;;;;;;6.72;6.18;;;16.50;99.90;;;;;;5053853;28;20210;-75
2023/05/06 03:20:00;;;;;;;6.32;5.05;;;16.50;99.90;;;;;;5053010;28;20730;-79
2023/05/06 03:22:28;;;;;;;10.30;6.88;;;16.50;99.90;;;;;;5053891;28;20234;-78
2023/05/06 03:24:55;;;;;;;6.82;5.60;;;16.50;99.90;;;;;;5053149;28;20624;-76
2023/05/06 03:27:22;;;;;;;7.32;6.07;;;16.60;99.90;;;;;;5053380;28;20235;-78
2023/05/06 03:29:49;;;;;;;8.45;6.38;;;16.60;99.90;;;;;;5053211;28;20234;-72
2023/05/06 03:32:16;;;;;;;8.23;6.10;;;16.50;99.90;;;;;;5053182;28;20256;-80
2023/05/06 03:34:43;;;;;;;7.18;5.55;;;16.50;99.90;;;;;;5053065;28;20638;-73
2023/05/06 03:37:10;;;;;;;6.78;5.95;;;16.50;99.90;;;;;;5053903;28;20244;-79
2023/05/06 03:39:38;;;;;;;14.15;6.82;;;16.50;99.90;;;;;;5053659;28;20352;-79
2023/05/06 03:42:05;;;;;;;9.40;6.85;;;16.50;99.90;;;;;;5052658;28;20670;-76
2023/05/06 03:44:32;;;;;;;6.18;5.63;;;16.50;99.90;;;;;;5053041;28;20638;-80
2023/05/06 03:46:59;;;;;;;7.43;6.10;;;16.50;99.90;;;;;;5052741;28;20296;-79
2023/05/06 03:49:26;;;;;;;7.75;6.85;;;16.40;99.90;;;;;;5052682;28;20203;-72
2023/05/06 03:51:53;;;;;;;6.95;5.47;;;16.40;99.90;;;;;;5054397;28;20237;-75
2023/05/06 03:54:20;;;;;;;7.82;6.30;;;16.40;99.90;;;;;;5032936;28;20250;-79
2023/05/06 03:56:49;;;;;;;7.25;6.65;;;16.30;99.90;;;;;;5039188;28;20234;-80
2023/05/06 03:59:15;;;;;;;8.10;7.30;;;16.30;99.90;;;;;;5052578;28;20262;-79
2023/05/06 04:01:43;;;;;;;8.68;7.70;;;16.30;99.90;;;;;;5052858;28;20253;-72
2023/05/06 04:04:10;;;;;;;8.80;7.78;;;16.20;99.90;;;;;;5053313;28;20253;-81
2023/05/06 04:06:37;;;;;;;8.77;7.97;;;16.20;99.90;;;;;;5052942;28;20250;-74
2023/05/06 04:09:05;;;;;;;8.52;7.70;;;16.20;99.90;;;;;;5044492;28;20312;-76
2023/05/06 04:11:32;;;;;;;8.57;7.80;;;16.00;99.90;;;;;;5032502;28;20222;-77
2023/05/06 04:14:00;;;;;;;10.25;8.57;;;16.00;99.90;;;;;;5032373;28;20235;-81
2023/05/06 04:16:27;;;;;;;8.00;7.30;;;16.10;99.90;;;;;;5032834;28;20550;-74
2023/05/06 04:18:55;;;;;;;7.88;7.25;;;16.10;99.90;;;;;;5032551;28;20207;-84
2023/05/06 04:21:22;;;;;;;8.77;7.97;;;16.10;99.90;;;;;;5032591;28;20247;-77
2023/05/06 04:23:49;;;;;;;9.90;8.85;;;16.10;99.90;;;;;;5031969;28;20238;-80
2023/05/06 04:26:16;;;;;;;9.25;8.45;;;16.10;99.90;;;;;;5031925;28;20691;-72
2023/05/06 04:28:42;;;;;;;9.90;8.95;;;16.10;99.90;;;;;;5032362;28;20238;-77
2023/05/06 04:31:13;;;;;;;8.57;7.68;;;16.00;99.90;;;;;;5032946;28;20239;-73
2023/05/06 04:33:40;;;;;;;9.18;8.00;;;16.10;99.90;;;;;;5032579;28;20318;-80
2023/05/06 04:36:08;;;;;;;9.23;8.30;;;16.10;99.90;;;;;;5032627;28;20204;-80
2023/05/06 04:38:36;;;;;;;10.15;8.88;;;16.10;99.90;;;;;;5031734;28;20239;-80
2023/05/06 04:41:04;;;;;;;10.50;9.50;;;16.10;99.90;;;;;;5031637;28;20277;-80
2023/05/06 04:43:31;;;;;;;10.68;9.55;;;16.00;99.90;;;;;;5032027;28;20597;-81
2023/05/06 04:45:58;;;;;;;10.32;9.13;;;15.90;99.90;;;;;;5031784;28;20204;-80
2023/05/06 04:48:26;;;;;;;9.30;8.40;;;16.00;99.90;;;;;;5032270;28;20208;-84
2023/05/06 04:50:53;;;;;;;8.60;7.70;;;16.10;99.90;;;;;;5032147;28;20241;-81
2023/05/06 04:53:20;;;;;;;11.30;8.82;;;16.10;99.90;;;;;;5032175;28;20207;-82
2023/05/06 04:55:47;;;;;;;9.50;8.60;;;16.10;99.90;;;;;;5031839;28;20241;-78
2023/05/06 04:58:14;;;;;;;10.73;9.10;;;16.00;99.90;;;;;;5031884;28;20623;-78
2023/05/06 05:00:41;;;;;;;10.48;9.35;;;15.90;99.90;;;;;;5032036;28;20274;-74
2023/05/06 05:03:08;;;;;;;10.20;8.70;;;15.90;99.90;;;;;;5031908;28;20208;-79
2023/05/06 05:05:36;;;;;;;9.10;8.20;;;16.00;99.90;;;;;;5032113;28;20294;-86
2023/05/06 05:08:03;;;;;;;9.30;8.35;;;16.00;99.90;;;;;;5031496;28;20243;-76
2023/05/06 05:10:30;;;;;;;9.55;8.30;;;16.00;99.90;;;;;;5031878;28;20234;-74
2023/05/06 05:12:57;;;;;;;8.27;7.47;;;16.00;99.90;;;;;;5031643;28;20235;-81
2023/05/06 05:15:24;;;;;;;10.35;9.32;;;15.80;99.90;;;;;;5031872;28;20242;-78
2023/05/06 05:17:51;;;;;;;8.48;7.68;;;15.60;99.90;;;;;;5031186;28;20243;-75
2023/05/06 05:20:19;;;;;;;10.35;8.55;;;15.70;99.90;;;;;;5031394;28;20322;-78
2023/05/06 05:22:48;;;;;;;7.68;6.85;;;15.90;99.90;;;;;;5030917;28;20261;-71
2023/05/06 05:25:15;;;;;;;9.07;7.50;;;16.10;99.90;;;;;;5031315;28;20740;-81
2023/05/06 05:27:42;;;;;;;8.10;7.40;;;16.00;99.90;;;;;;5031363;28;20242;-74
2023/05/06 05:30:09;;;;;;;7.25;6.00;;;16.10;99.90;;;;;;5031805;28;20208;-82
2023/05/06 05:32:36;;;;;;;7.30;6.60;;;16.10;99.90;;;;;;5031344;28;20574;-81
2023/05/06 05:35:04;;;;;;;9.75;8.48;;;16.20;99.90;;;;;;5030921;28;20239;-74
2023/05/06 05:37:31;;;;;;;7.60;6.80;;;16.20;99.90;;;;;;5036756;28;20250;-73
2023/05/06 05:39:59;;;;;;;8.88;7.18;;;16.20;99.90;;;;;;5048218;28;20597;-82
2023/05/06 05:42:26;;;;;;;8.93;6.47;;;16.20;99.90;;;;;;5051234;28;20720;-79
2023/05/06 05:44:53;;;;;;;8.63;7.15;;;16.20;99.90;;;;;;5050497;28;20459;-79
2023/05/06 05:47:20;;;;;;;7.25;6.63;;;16.40;99.90;;;;;;5050689;28;20230;-82
2023/05/06 05:49:47;;;;;;;16.27;7.45;;;16.30;99.90;;;;;;5048623;28;20246;-81
2023/05/06 05:52:14;;;;;;;7.03;6.43;;;16.40;99.90;;;;;;5050729;28;20250;-81
2023/05/06 05:54:41;;;;;;;9.23;5.85;;;16.50;99.90;;;;;;5051127;28;20203;-72
2023/05/06 05:57:09;;;;;;;7.72;7.03;;;16.40;99.90;;;;;;5051327;28;20289;-79
2023/05/06 05:59:36;;;;;;;7.10;6.40;;;16.40;99.90;;;;;;5051247;28;20202;-80
2023/05/06 06:02:03;;;;;;;6.43;5.72;;;16.60;99.90;;;;;;5050512;28;20250;-80
2023/05/06 06:04:30;;;;;;;9.65;5.85;;;16.50;99.90;;;;;;5050576;28;20199;-80
2023/05/06 06:06:57;;;;;;;7.43;6.65;;;16.50;99.90;;;;;;5050299;28;20682;-82
2023/05/06 06:09:25;;;;;;;6.72;6.13;;;16.50;99.90;;;;;;5051000;28;20203;-81
2023/05/06 06:11:52;;;;;;;6.25;5.63;;;16.50;99.90;;;;;;5050617;28;20234;-81
2023/05/06 06:14:20;;;;;;;7.78;5.55;;;16.50;99.90;;;;;;5051053;28;20257;-83
2023/05/06 06:16:47;;;;;;;10.60;7.50;;;16.60;99.90;;;;;;5050364;28;20238;-80
2023/05/06 06:19:14;;;;;;;7.10;4.53;;;16.60;99.90;;;;;;5050716;28;20246;-79
2023/05/06 06:21:41;;;;;;;5.95;4.88;;;16.80;99.90;;;;;;5050520;28;20239;-72
2023/05/06 06:24:08;;;;;;;5.10;4.55;;;16.80;99.90;;;;;;5045179;28;20234;-77
2023/05/06 06:26:35;;;;;;;6.95;4.55;;;16.90;99.90;;;;;;5050831;28;20239;-78
2023/05/06 06:29:02;;;;;;;4.57;4.18;;;17.00;99.90;;;;;;5049409;28;20758;-76
2023/05/06 06:31:32;;;;;;;4.72;3.85;;;17.10;99.90;;;;;;5048778;28;20235;-81
2023/05/06 06:33:59;;;;;;;5.00;4.50;;;17.20;99.90;;;;;;5048642;28;20207;-77
2023/05/06 06:36:26;;;;;;;6.50;5.25;;;17.30;99.90;;;;;;5048533;28;20215;-73
2023/05/06 06:38:53;;;;;;;4.35;3.95;;;17.40;99.90;;;;;;5039897;28;20650;-75
2023/05/06 06:41:20;;;;;;;4.50;4.20;;;17.40;99.90;;;;;;5050299;28;20258;-75
2023/05/06 06:43:47;;;;;;;3.95;3.65;;;17.40;99.90;;;;;;5050081;28;20249;-74
2023/05/06 06:46:14;;;;;;;6.40;5.03;;;17.50;99.90;;;;;;5050344;28;20261;-77
2023/05/06 06:48:42;;;;;;;4.43;4.03;;;17.60;99.90;;;;;;5045689;28;20235;-77
2023/05/06 06:51:09;;;;;;;4.65;4.25;;;17.70;99.90;;;;;;5041182;28;20200;-77
2023/05/06 06:53:36;;;;;;;4.15;3.85;;;17.70;99.90;;;;;;5048788;28;20242;-80
2023/05/06 06:56:03;;;;;;;4.75;3.90;;;17.90;99.90;;;;;;5049911;28;20630;-84
2023/05/06 06:58:29;;;;;;;6.32;4.22;;;17.90;99.90;;;;;;5050484;28;20234;-77
2023/05/06 07:00:56;;;;;;;4.60;3.28;;;17.90;99.90;;;;;;5050523;28;20266;-81
2023/05/06 07:03:23;;;;;;;3.40;3.05;;;18.10;99.90;;;;;;5051594;28;20230;-79
2023/05/06 07:05:51;;;;;;;4.45;3.33;;;18.10;99.90;;;;;;5051403;28;20238;-82
2023/05/06 07:08:20;;;;;;;3.72;3.30;;;18.10;99.90;;;;;;5052934;28;20245;-82
2023/05/06 07:10:47;;;;;;;3.70;3.10;;;18.30;99.90;;;;;;5053104;28;20215;-77
2023/05/06 07:13:14;;;;;;;4.45;4.00;;;18.30;99.90;;;;;;5053661;28;20682;-77
2023/05/06 07:15:41;;;;;;;5.47;3.58;;;18.40;99.90;;;;;;5053912;28;20661;-82
2023/05/06 07:18:09;;;;;;;3.53;3.22;;;18.60;99.90;;;;;;5054397;28;20209;-78
2023/05/06 07:20:36;;;;;;;4.28;3.00;;;18.80;99.90;;;;;;5046730;28;20733;-72
2023/05/06 07:23:05;;;;;;;3.67;3.38;;;18.80;99.90;;;;;;5033439;28;20243;-72
2023/05/06 07:25:32;;;;;;;3.30;2.83;;;18.90;99.90;;;;;;5043537;28;20234;-71
2023/05/06 07:27:59;;;;;;;3.15;2.80;;;19.10;99.90;;;;;;5053084;28;20238;-71
2023/05/06 07:30:26;;;;;;;3.28;2.58;;;19.50;99.90;;;;;;5053157;28;20653;-73
2023/05/06 07:32:52;;;;;;;2.80;2.53;;;19.60;99.90;;;;;;5053022;28;20238;-73
2023/05/06 07:35:19;;;;;;;3.90;2.58;;;19.50;99.90;;;;;;5053250;28;20652;-74
2023/05/06 07:37:46;;;;;;;3.60;3.33;;;19.50;99.90;;;;;;5043229;28;20282;-74
2023/05/06 07:40:15;;;;;;;4.07;3.05;;;19.50;99.90;;;;;;5051326;28;20242;-70
2023/05/06 07:42:42;;;;;;;6.68;2.55;;;19.40;99.90;;;;;;5052868;28;20238;-74
2023/05/06 07:45:09;;;;;;;6.13;3.28;;;19.40;99.90;;;;;;5053345;28;20234;-77
2023/05/06 07:47:36;;;;;;;6.40;3.35;;;19.50;99.90;;;;;;5052508;28;20581;-77
2023/05/06 07:50:05;;;;;;;3.08;2.42;;;19.60;99.90;;;;;;5052114;28;20242;-78
2023/05/06 07:52:32;;;;;;;2.63;2.40;;;19.70;99.90;;;;;;5053016;28;20203;-73
2023/05/06 07:54:59;;;;;;;2.83;2.28;;;19.80;99.90;;;;;;5052650;28;20227;-72
2023/05/06 07:57:27;;;;;;;3.33;2.50;;;20.00;99.90;;;;;;5053305;28;20249;-77
2023/05/06 07:59:54;;;;;;;3.65;2.97;;;20.10;99.90;;;;;;5052398;28;20218;-78
2023/05/06 08:02:21;;;;;;;3.10;2.70;;;20.00;99.90;;;;;;5050554;28;20230;-72
2023/05/06 08:04:48;;;;;;;4.25;2.60;;;20.00;99.90;;;;;;5043093;28;20633;-77
2023/05/06 08:07:15;;;;;;;2.10;1.90;;;20.10;99.90;;;;;;5032603;28;20250;-74
2023/05/06 08:09:42;;;;;;;2.33;2.13;;;20.10;99.90;;;;;;5044625;28;20198;-72
2023/05/06 08:12:09;;;;;;;2.47;2.28;;;20.20;99.90;;;;;;5052524;28;20234;-71
2023/05/06 08:14:38;;;;;;;2.63;2.42;;;20.20;99.90;;;;;;5052629;28;20264;-81
2023/05/06 08:17:05;;;;;;;2.33;2.08;;;20.10;99.90;;;;;;5051423;28;20214;-77
2023/05/06 08:19:32;;;;;;;4.55;2.58;;;20.20;99.90;;;;;;5051261;28;20202;-79
2023/05/06 08:21:59;;;;;;;3.55;2.70;;;20.20;99.90;;;;;;5051688;28;20262;-81
2023/05/06 08:24:26;;;;;;;2.33;2.08;;;20.50;99.90;;;;;;5052277;28;20222;-74
2023/05/06 08:26:53;;;;;;;2.35;2.10;;;20.60;99.90;;;;;;5051990;28;20207;-84
2023/05/06 08:29:20;;;;;;;2.15;1.95;;;20.70;99.90;;;;;;5046586;28;20265;-80
2023/05/06 08:31:48;;;;;;;3.17;2.25;;;20.80;99.90;;;;;;5051178;28;20233;-82
2023/05/06 08:34:17;;;;;;;3.55;1.98;;;20.70;99.90;;;;;;5052328;28;20219;-75
2023/05/06 08:36:44;;;;;;;3.55;2.15;;;20.60;99.90;;;;;;5050919;28;20207;-74
2023/05/06 08:39:13;;;;;;;2.10;1.90;;;20.80;99.90;;;;;;5047222;28;20199;-77
2023/05/06 08:41:41;;;;;;;5.25;2.67;;;21.00;99.90;;;;;;5032613;28;20270;-74
2023/05/06 08:44:08;;;;;;;4.20;2.42;;;21.10;99.90;;;;;;5042797;28;20207;-73
2023/05/06 08:46:35;;;;;;;2.95;2.47;;;21.20;99.90;;;;;;5051762;28;20235;-73
2023/05/06 08:49:04;;;;;;;2.88;1.95;;;21.50;99.90;;;;;;5050092;28;20249;-75
2023/05/06 08:51:32;;;;;;;2.95;2.22;;;21.50;99.90;;;;;;5051980;28;20209;-81
2023/05/06 08:54:02;;;;;;;2.90;1.90;;;21.70;99.90;;;;;;5051364;28;20234;-75
2023/05/06 08:56:30;;;;;;;3.75;1.90;;;22.10;99.90;;;;;;5051722;28;20297;-74
2023/05/06 08:58:58;;;;;;;2.25;1.90;;;21.80;99.90;;;;;;5049119;28;20206;-75
2023/05/06 09:01:27;;;;;;;2.38;1.92;;;22.00;99.90;;;;;;5031283;28;20238;-76
2023/05/06 09:03:55;;;;;;;1.83;1.73;;;21.80;99.90;;;;;;5031513;28;20214;-77
2023/05/06 09:06:24;;;;;;;2.20;2.08;;;22.10;99.90;;;;;;5031687;28;20211;-74
2023/05/06 09:08:51;;;;;;;3.35;1.77;;;22.70;99.90;;;;;;5031612;28;20626;-75
2023/05/06 09:11:22;;;;;;;1.50;1.40;;;22.50;99.90;;;;;;5041760;28;20250;-75
2023/05/06 09:13:50;;;;;;;3.10;1.40;;;22.50;99.90;;;;;;5050863;28;20242;-76
2023/05/06 09:16:30;;;;;;;1.42;1.23;;;22.30;99.90;;;;;;5051252;28;20207;-78
2023/05/06 09:18:57;;;;;;;3.20;2.00;;;22.30;99.90;;;;;;5051121;28;20608;-76
2023/05/06 09:21:33;;;;;;;3.85;2.05;;;22.70;99.90;;;;;;5050808;28;20261;-75
2023/05/06 09:24:01;;;;;;;1.50;1.40;;;22.90;99.90;;;;;;5050162;28;20206;-74
2023/05/06 09:26:29;;;;;;;3.63;2.13;;;22.90;99.90;;;;;;5050720;28;20242;-74
2023/05/06 09:28:57;;;;;;;2.60;1.55;;;23.20;99.90;;;;;;5050896;28;20234;-76
2023/05/06 09:31:24;;;;;;;1.92;1.60;;;25.20;99.90;;;;;;5051475;28;20301;-75
2023/05/06 09:33:51;;;;;;;3.28;1.60;;;27.20;99.90;;;;;;5051063;28;20209;-78
2023/05/06 09:36:19;;;;;;;3.78;2.03;;;25.90;99.90;;;;;;5051221;28;20262;-76
2023/05/06 09:38:47;;;;;;;1.75;1.48;;;24.60;99.90;;;;;;5050770;28;20203;-76
2023/05/06 09:41:15;;;;;;;2.10;2.00;;;25.10;99.90;;;;;;5050793;28;20651;-76
2023/05/06 09:43:44;;;;;;;1.60;1.50;;;25.50;99.90;;;;;;5051044;28;20226;-76
2023/05/06 09:46:12;;;;;;;2.45;1.75;;;;;;;;;;5051215;28;20209;-75
2023/05/06 09:48:39;;;;;;;1.92;1.83;;;23.30;99.90;;;;;;5051264;28;20234;-76
2023/05/06 09:51:07;;;;;;;3.78;2.03;;;25.20;1.00;;;;;;5050971;28;20221;-76
2023/05/06 09:53:36;;;;;;;2.13;1.52;;;25.20;99.90;;;;;;5050709;28;20200;-75
2023/05/06 09:56:05;;;;;;;4.07;1.60;;;24.90;1.00;;;;;;5050739;28;20270;-76
2023/05/06 09:58:33;;;;;;;2.90;1.92;;;24.10;1.00;;;;;;5050893;28;20242;-75
2023/05/06 10:01:00;;;;;;;2.33;1.50;;;25.30;99.90;;;;;;5050418;28;20203;-76
2023/05/06 10:03:28;;;;;;;4.05;1.90;;;25.00;99.90;;;;;;5050902;28;20235;-75
2023/05/06 10:05:56;;;;;;;2.05;1.23;;;25.40;99.90;;;;;;5050161;28;20689;-76
2023/05/06 10:08:24;;;;;;;4.97;2.45;;;26.40;99.90;;;;;;5050676;28;20218;-75
2023/05/06 10:10:51;;;;;;;1.95;1.80;;;29.00;99.90;;;;;;5050620;28;20243;-75
2023/05/06 10:13:23;;;;;;;5.05;2.03;;;28.70;99.90;;;;;;5050561;28;20239;-74
2023/05/06 10:15:50;;;;;;;3.10;1.38;;;29.60;99.90;;;;;;5050243;28;20649;-75
2023/05/06 10:18:19;;;;;;;4.35;2.63;;;29.70;1.00;;;;;;5050566;28;20553;-75
2023/05/06 10:20:47;;;;;;;1.75;1.38;;;29.70;99.90;;;;;;5050235;28;20261;-74
2023/05/06 10:23:25;;;;;;;2.00;1.83;;;30.40;99.90;;;;;;5050794;28;20277;-75
2023/05/06 10:25:56;;;;;;;2.65;1.58;;;31.50;99.90;;;;;;5050298;28;20242;-74
2023/05/06 10:28:24;;;;;;;3.38;2.17;;;30.20;99.90;;;;;;5050425;28;20248;-74
2023/05/06 10:30:52;;;;;;;5.82;1.85;;;27.00;99.90;;;;;;5050213;28;20214;-76
2023/05/06 10:33:22;;;;;;;1.88;1.75;;;25.90;99.90;;;;;;5050411;28;20243;-76
2023/05/06 10:35:56;;;;;;;2.60;1.55;;;25.30;99.90;;;;;;5051102;28;20245;-75
2023/05/06 10:38:29;;;;;;;1.63;1.50;;;24.90;99.90;;;;;;5054453;28;20246;-75
2023/05/06 10:40:57;;;;;;;1.92;1.65;;;25.10;99.90;;;;;;5054097;28;20311;-75
2023/05/06 10:43:28;;;;;;;3.17;2.15;;;25.40;99.90;;;;;;5054210;28;20320;-74
2023/05/06 10:46:02;;;;;;;1.85;1.58;;;25.20;99.90;;;;;;5053991;28;20268;-75
2023/05/06 10:48:30;;;;;;;3.03;1.80;;;25.00;99.90;;;;;;5054552;28;20206;-74
2023/05/06 10:51:26;;;;;;;3.00;1.80;;;24.90;99.90;;;;;;5054127;28;20232;-75
2023/05/06 10:54:04;;;;;;;4.82;2.20;;;25.30;99.90;;;;;;5053705;28;20241;-75
2023/05/06 10:56:32;;;;;;;1.95;1.85;;;25.40;99.90;;;;;;5054088;28;20210;-72
2023/05/06 10:59:06;;;;;;;2.85;2.20;;;25.40;99.90;;;;;;5053759;28;20673;-75
2023/05/06 11:01:34;;;;;;;5.65;2.15;;;25.20;99.90;;;;;;5053803;28;20226;-75
2023/05/06 11:04:08;;;;;;;2.70;1.90;;;25.50;99.90;;;;;;5053768;28;20206;-75
2023/05/06 11:06:38;;;;;;;2.67;2.47;;;25.30;99.90;;;;;;5053991;28;20202;-75
2023/05/06 11:09:06;;;;;;;3.45;1.92;;;25.30;99.90;;;;;;5053735;28;20242;-75
2023/05/06 11:11:57;;;;;;;5.05;2.60;;;25.40;99.90;;;;;;5054096;28;20245;-75
2023/05/06 11:14:34;;;;;;;3.10;1.85;;;25.30;99.90;;;;;;5053981;28;20242;-73
2023/05/06 11:17:02;;;;;;;1.70;1.60;;;25.10;99.90;;;;;;5053374;28;20710;-75
2023/05/06 11:19:30;;;;;;;1.90;1.75;;;25.30;99.90;;;;;;5053767;28;20245;-75
2023/05/06 11:21:59;;;;;;;2.08;1.83;;;25.60;99.90;;;;;;5053394;28;20716;-75
2023/05/06 11:24:27;;;;;;;2.25;2.05;;;25.90;99.90;;;;;;5053597;28;20253;-75
2023/05/06 11:26:55;;;;;;;3.13;2.08;;;25.90;99.90;;;;;;5053112;28;20238;-75
2023/05/06 11:29:23;;;;;;;2.88;1.88;;;25.60;99.90;;;;;;5053416;28;20698;-74
2023/05/06 11:31:52;;;;;;;2.33;2.13;;;25.80;99.90;;;;;;5053410;28;20242;-75
2023/05/06 11:34:24;;;;;;;3.03;1.92;;;25.70;99.90;;;;;;5053661;28;20260;-74
2023/05/06 11:36:57;;;;;;;4.72;2.45;;;25.70;99.90;;;;;;5053031;28;20615;-74
2023/05/06 11:39:24;;;;;;;3.08;1.85;;;25.80;99.90;;;;;;5053178;28;20206;-74
2023/05/06 11:41:53;;;;;;;2.00;1.80;;;26.00;99.90;;;;;;5052624;28;20227;-73
2023/05/06 11:44:28;;;;;;;4.45;2.60;;;26.10;99.90;;;;;;5053201;28;20659;-74
2023/05/06 11:47:01;;;;;;;3.25;2.15;;;26.10;99.90;;;;;;5052126;28;20212;-75
2023/05/06 11:49:28;;;;;;;2.92;2.60;;;26.20;99.90;;;;;;5053014;28;20199;-75
2023/05/06 11:51:56;;;;;;;2.92;1.88;;;26.30;99.90;;;;;;5052761;28;20249;-73
2023/05/06 11:54:25;;;;;;;1.85;1.75;;;26.40;99.90;;;;;;5052757;28;20207;-75
2023/05/06 11:56:53;;;;;;;3.53;2.47;;;26.40;99.90;;;;;;5052663;28;20241;-76
2023/05/06 11:59:28;;;;;;;2.17;2.08;;;26.30;99.90;;;;;;5053203;28;20230;-74
2023/05/06 12:01:57;;;;;;;2.33;2.05;;;26.50;99.90;;;;;;5052475;28;20292;-75
2023/05/06 12:04:25;;;;;;;2.00;1.80;;;26.40;99.90;;;;;;5052844;28;20238;-75
2023/05/06 12:06:54;;;;;;;3.20;2.05;;;26.50;99.90;;;;;;5052432;28;20241;-75
2023/05/06 12:09:22;;;;;;;3.00;1.92;;;26.60;99.90;;;;;;5052832;28;20207;-74
2023/05/06 12:11:50;;;;;;;2.03;1.70;;;26.50;99.90;;;;;;5052593;28;20210;-75
2023/05/06 12:14:17;;;;;;;4.85;1.75;;;26.20;99.90;;;;;;5052884;28;20230;-75
2023/05/06 12:16:44;;;;;;;2.60;2.40;;;25.00;1.00;;;;;;5052372;28;20246;-74
2023/05/06 12:19:12;;;;;;;2.83;2.22;;;27.10;99.90;;;;;;5052676;28;20738;-75
2023/05/06 12:21:40;;;;;;;3.78;2.17;;;27.00;99.90;;;;;;5052869;28;20234;-75
2023/05/06 12:24:07;;;;;;;2.80;2.22;;;26.80;99.90;;;;;;5052462;28;20242;-75
2023/05/06 12:26:47;;;;;;;3.45;2.33;;;26.90;99.90;;;;;;5052729;28;20237;-75
2023/05/06 12:29:16;;;;;;;1.88;1.75;;;27.30;99.90;;;;;;5052412;28;20203;-74
2023/05/06 12:31:45;;;;;;;2.17;2.00;;;27.30;99.90;;;;;;5052151;28;20293;-73
2023/05/06 12:34:13;;;;;;;3.03;1.88;;;27.40;99.90;;;;;;5052254;28;20619;-74
2023/05/06 12:36:42;;;;;;;3.33;2.40;;;27.10;99.90;;;;;;5052606;28;20666;-74
2023/05/06 12:39:10;;;;;;;3.03;1.60;;;27.10;99.90;;;;;;5052521;28;20636;-73
2023/05/06 12:41:40;;;;;;;1.75;1.65;;;27.00;99.90;;;;;;5052606;28;20261;-74
2023/05/06 12:44:32;;;;;;;2.58;2.38;;;26.80;99.90;;;;;;5052160;28;20245;-73
2023/05/06 12:47:00;;;;;;;4.95;1.80;;;27.10;99.90;;;;;;5052008;28;20202;-74
2023/05/06 12:49:28;;;;;;;2.63;2.17;;;27.10;99.90;;;;;;5052013;28;20563;-76
2023/05/06 12:52:09;;;;;;;3.05;2.15;;;27.40;99.90;;;;;;5051568;28;20234;-75
2023/05/06 12:54:37;;;;;;;1.88;1.77;;;27.40;1.00;;;;;;5052225;28;20299;-73